createdAt,value
2023-05-10T00:01:58.913Z,41.90
2023-05-10T00:06:44.944Z,41.94
2023-05-10T00:11:59.846Z,42.01
2023-05-10T00:17:13.058Z,42.10
2023-05-10T00:22:32.091Z,42.19
2023-05-10T00:27:50.792Z,42.19
2023-05-10T00:33:09.149Z,42.23
2023-05-10T00:44:39.156Z,42.42
2023-05-10T00:54:45.330Z,42.07
2023-05-10T01:00:28.041Z,42.11
2023-05-10T01:04:27.447Z,42.25
2023-05-10T01:05:26.142Z,42.81
2023-05-10T01:11:39.266Z,42.68
2023-05-10T01:16:32.766Z,42.84
2023-05-10T01:22:18.497Z,42.98
2023-05-10T01:28:11.787Z,42.66
2023-05-10T01:33:55.622Z,42.67
2023-05-10T01:39:34.453Z,42.67
2023-05-10T01:46:15.117Z,42.45
2023-05-10T01:55:51.212Z,42.56
2023-05-10T02:00:45.404Z,42.67
2023-05-10T02:06:18.716Z,42.67
2023-05-10T02:11:49.388Z,42.90
2023-05-10T02:17:08.324Z,42.62
2023-05-10T02:22:07.474Z,42.48
2023-05-10T02:27:47.157Z,42.53
2023-05-10T02:33:21.688Z,42.86
2023-05-10T02:38:28.278Z,43.08
2023-05-10T02:43:41.679Z,43.23
2023-05-10T02:50:49.552Z,43.32
2023-05-10T02:54:52.543Z,43.51
2023-05-10T03:04:57.947Z,43.37
2023-05-10T03:06:20.792Z,43.39
2023-05-10T03:10:58.918Z,43.43
2023-05-10T03:16:47.647Z,43.44
2023-05-10T03:22:15.894Z,43.50
2023-05-10T03:28:26.370Z,43.42
2023-05-10T03:33:26.577Z,43.53
2023-05-10T03:39:33.206Z,43.61
2023-05-10T03:45:24.857Z,43.59
2023-05-10T04:03:34.892Z,43.74
2023-05-10T04:07:28.628Z,43.68
2023-05-10T04:12:49.838Z,43.61
2023-05-10T04:18:32.166Z,43.66
2023-05-10T04:23:54.625Z,43.67
2023-05-10T04:29:05.083Z,43.70
2023-05-10T04:40:10.325Z,43.64
2023-05-10T04:45:03.913Z,43.66
2023-05-10T04:55:29.296Z,43.59
2023-05-10T05:00:33.772Z,43.62
2023-05-10T05:05:35.869Z,43.74
2023-05-10T05:05:45.816Z,43.61
2023-05-10T05:10:41.574Z,43.78
2023-05-10T05:11:15.013Z,43.54
2023-05-10T05:16:44.191Z,43.53
2023-05-10T05:22:11.165Z,43.53
2023-05-10T05:28:12.614Z,43.47
2023-05-10T05:32:38.158Z,43.53
2023-05-10T05:38:36.519Z,43.40
2023-05-10T05:43:55.180Z,43.42
2023-05-10T05:49:15.766Z,43.27
2023-05-10T05:54:34.365Z,43.18
2023-05-10T06:00:30.966Z,43.11
2023-05-10T06:05:09.885Z,43.21
2023-05-10T06:10:15.039Z,43.16
2023-05-10T06:16:16.323Z,43.08
2023-05-10T06:22:12.448Z,43.07
2023-05-10T06:27:56.279Z,42.78
2023-05-10T06:35:27.337Z,42.66
2023-05-10T06:39:51.271Z,42.63
2023-05-10T06:51:01.335Z,42.82
2023-05-10T06:56:48.477Z,43.12
2023-05-10T07:02:50.760Z,43.07
2023-05-10T07:08:36.177Z,43.24
2023-05-10T07:14:36.663Z,43.26
2023-05-10T07:20:36.187Z,42.96
2023-05-10T07:26:26.264Z,43.46
2023-05-10T07:31:31.753Z,43.39
2023-05-10T07:37:08.612Z,43.41
2023-05-10T07:42:11.209Z,43.25
2023-05-10T07:47:58.477Z,42.97
2023-05-10T07:53:42.475Z,42.93
2023-05-10T07:59:35.058Z,42.78
2023-05-10T08:05:24.279Z,42.71
2023-05-10T08:09:56.565Z,42.60
2023-05-10T08:15:44.492Z,42.54
2023-05-10T08:26:54.780Z,42.44
2023-05-10T08:32:23.382Z,42.37
2023-05-10T08:37:46.047Z,42.16
2023-05-10T08:44:01.208Z,42.21
2023-05-10T08:48:43.518Z,42.08
2023-05-10T08:54:03.939Z,41.97
2023-05-10T09:00:28.927Z,41.93
2023-05-10T09:05:39.271Z,41.89
2023-05-10T09:10:56.915Z,41.85
2023-05-10T09:16:07.090Z,41.82
2023-05-10T09:21:31.128Z,41.79
2023-05-10T09:27:14.478Z,41.77
2023-05-10T09:33:02.473Z,41.66
2023-05-10T09:38:48.378Z,41.59
2023-05-10T09:44:30.836Z,41.43
2023-05-10T09:49:50.719Z,41.36
2023-05-10T09:55:38.115Z,41.25
2023-05-10T10:01:30.136Z,41.31
2023-05-10T10:07:20.853Z,41.34
2023-05-10T10:13:25.160Z,41.26
2023-05-10T10:19:08.817Z,41.02
2023-05-10T10:25:06.842Z,40.79
2023-05-10T10:30:32.215Z,41.03
2023-05-10T10:35:50.234Z,40.92
2023-05-10T10:41:32.445Z,40.81
2023-05-10T10:47:28.608Z,40.72
2023-05-10T10:52:54.716Z,40.75
2023-05-10T10:57:36.686Z,40.82
2023-05-10T11:03:30.947Z,40.91
2023-05-10T11:08:39.455Z,40.88
2023-05-10T11:14:37.021Z,40.86
2023-05-10T11:20:24.301Z,40.93
2023-05-10T11:26:06.823Z,40.91
2023-05-10T11:31:34.557Z,40.84
2023-05-10T11:38:08.013Z,40.88
2023-05-10T11:43:24.266Z,40.86
2023-05-10T11:48:39.540Z,40.89
2023-05-10T11:54:30.237Z,40.82
2023-05-10T12:00:30.119Z,40.87
2023-05-10T12:06:15.899Z,40.82
2023-05-10T12:11:32.002Z,40.81
2023-05-10T12:16:44.460Z,40.78
2023-05-10T12:21:59.903Z,40.67
2023-05-10T12:28:21.171Z,40.71
2023-05-10T12:33:05.986Z,40.57
2023-05-10T12:43:55.274Z,40.50
2023-05-10T12:46:05.045Z,40.61
2023-05-10T12:49:19.938Z,40.45
2023-05-10T12:54:46.210Z,40.43
2023-05-10T12:59:51.117Z,40.50
2023-05-10T13:05:53.276Z,40.51
2023-05-10T13:11:19.516Z,40.58
2023-05-10T13:22:36.327Z,40.59
2023-05-10T13:28:15.974Z,40.49
2023-05-10T13:34:01.431Z,40.50
2023-05-10T13:44:41.381Z,40.00
2023-05-10T13:50:33.997Z,40.47
2023-05-10T13:56:20.932Z,40.54
2023-05-10T14:01:44.906Z,40.71
2023-05-10T14:07:34.502Z,40.75
2023-05-10T14:13:21.669Z,40.82
2023-05-10T14:19:11.948Z,40.88
2023-05-10T14:25:12.231Z,40.84
2023-05-10T14:31:01.883Z,40.88
2023-05-10T14:42:28.430Z,40.85
2023-05-10T14:48:38.366Z,40.88
2023-05-10T14:59:50.636Z,41.00
2023-05-10T15:06:16.441Z,41.05
2023-05-10T15:12:23.346Z,41.05
2023-05-10T15:18:45.850Z,40.98
2023-05-10T15:23:35.144Z,40.88
2023-05-10T15:41:13.015Z,40.60
2023-05-10T15:46:28.448Z,40.57
2023-05-10T15:52:23.197Z,40.48
2023-05-10T15:57:42.175Z,40.41
2023-05-10T16:02:49.644Z,40.82
2023-05-10T16:07:56.564Z,40.78
2023-05-10T16:13:03.992Z,40.63
2023-05-10T16:18:11.567Z,40.58
2023-05-10T16:23:19.242Z,40.59
2023-05-10T16:28:27.092Z,40.59
2023-05-10T16:33:34.681Z,40.56
2023-05-10T16:38:42.331Z,40.52
2023-05-10T16:43:49.853Z,40.37
2023-05-10T16:48:57.621Z,40.37
2023-05-10T16:54:05.436Z,40.37
2023-05-10T16:59:13.283Z,40.37
2023-05-10T17:04:20.872Z,40.38
2023-05-10T17:09:28.650Z,40.33
2023-05-10T17:14:36.246Z,40.34
2023-05-10T17:19:43.992Z,40.36
2023-05-10T17:24:51.486Z,40.37
2023-05-10T17:29:59.435Z,40.37
2023-05-10T17:35:06.972Z,40.38
2023-05-10T17:40:15.009Z,40.38
2023-05-10T17:45:22.857Z,40.44
2023-05-10T17:50:30.637Z,40.46
2023-05-10T17:55:38.351Z,40.48
2023-05-10T18:00:46.056Z,40.66
2023-05-10T18:05:54.009Z,40.40
2023-05-10T18:11:01.807Z,40.05
2023-05-10T18:16:09.542Z,39.11
2023-05-10T18:21:17.685Z,39.18
2023-05-10T18:26:25.364Z,38.81
2023-05-10T18:31:33.208Z,38.55
2023-05-10T18:36:41.016Z,37.96
2023-05-10T18:41:48.826Z,38.75
2023-05-10T18:46:56.574Z,38.63
2023-05-10T18:52:04.271Z,38.66
2023-05-10T18:57:12.082Z,38.50
2023-05-10T19:02:20.066Z,38.26
2023-05-10T19:07:27.908Z,37.96
2023-05-10T19:12:35.748Z,37.89
2023-05-10T19:17:45.208Z,37.78
2023-05-10T19:27:59.762Z,37.12
2023-05-10T19:33:07.712Z,37.09
2023-05-10T19:38:15.374Z,36.97
2023-05-10T19:43:23.375Z,36.73
2023-05-10T19:48:31.422Z,36.67
2023-05-10T19:53:39.518Z,36.57
2023-05-10T19:58:48.493Z,36.39
2023-05-10T20:03:56.594Z,36.17
2023-05-10T20:09:04.441Z,35.91
2023-05-10T20:14:12.340Z,35.64
2023-05-10T20:19:23.455Z,35.61
2023-05-10T20:24:31.284Z,35.38
2023-05-10T20:29:43.161Z,35.22
2023-05-10T20:34:51.202Z,35.15
2023-05-10T20:39:59.110Z,35.11
2023-05-10T20:45:07.557Z,35.12
2023-05-10T20:50:15.810Z,34.93
2023-05-10T20:55:23.284Z,34.77
2023-05-10T21:00:30.867Z,34.60
2023-05-10T21:05:38.173Z,34.52
2023-05-10T21:10:45.425Z,34.80
2023-05-10T21:15:52.789Z,34.82
2023-05-10T21:21:00.089Z,34.63
2023-05-10T21:26:07.309Z,34.56
2023-05-10T21:31:14.615Z,34.53
2023-05-10T21:36:21.980Z,34.32
2023-05-10T21:41:29.165Z,34.26
2023-05-10T21:46:36.759Z,34.18
2023-05-10T21:51:44.171Z,33.99
2023-05-10T21:56:51.414Z,34.03
2023-05-10T22:01:58.624Z,34.05
2023-05-10T22:07:05.927Z,33.83
2023-05-10T22:12:13.284Z,33.85
2023-05-10T22:17:20.929Z,33.67
2023-05-10T22:22:28.361Z,33.78
2023-05-10T22:27:35.644Z,33.73
2023-05-10T22:35:00.831Z,33.86
2023-05-10T22:44:59.008Z,34.16
2023-05-10T23:28:15.251Z,35.07
2023-05-10T23:45:23.304Z,35.51
2023-05-10T23:51:05.758Z,35.63
2023-05-10T23:56:50.706Z,35.73
